Roxbury, New York
Current Conditions -  °F | °C
As of 12:15 AM on Thursday 23 Oct 2014 (Local Time) from KMSV Reporting Station
Overcast Overcast  
Wind Chill: 41°   Ceiling: 6000
Heat Index: 46°   Visibility: 10mi
Dew Point: 45°   Wind: 10mph
Humidity: 93%   Direction: 360°N
Pressure: 29.87"   Gusts: 21mph
Location:  42.28°N, 74.56°W
Report Text: KMSV 230415Z AUTO 36009G18KT 10SM FEW030 SCT038 OVC060 08/07 A2987 RMK AO1
Loading
Personal Weather Stations






























Interactive Weather Map
Tropical Storm Tracking
New forecast layout! Learn more

10-Day Weather Forecast

Advertisements
Track Severe Weather on mobile